createdAt,value
2019-04-16T00:01:27.960Z,11.27
2019-04-16T00:03:56.342Z,10.90
2019-04-16T00:06:36.427Z,10.60
2019-04-16T00:09:18.565Z,10.80
2019-04-16T00:11:52.750Z,11.03
2019-04-16T00:14:23.987Z,11.00
2019-04-16T00:16:50.366Z,10.83
2019-04-16T00:19:16.837Z,11.50
2019-04-16T00:21:53.691Z,10.67
2019-04-16T00:24:24.514Z,11.30
2019-04-16T00:26:51.017Z,10.53
2019-04-16T00:29:17.420Z,11.17
2019-04-16T00:31:45.750Z,11.27
2019-04-16T00:34:14.254Z,11.27
2019-04-16T00:36:42.296Z,11.43
2019-04-16T00:39:08.581Z,11.00
2019-04-16T00:41:35.006Z,11.40
2019-04-16T00:44:01.693Z,10.97
2019-04-16T00:46:28.196Z,11.20
2019-04-16T00:48:54.577Z,11.63
2019-04-16T00:51:21.345Z,11.13
2019-04-16T00:53:47.920Z,11.13
2019-04-16T00:56:16.207Z,11.00
2019-04-16T00:58:42.921Z,11.87
2019-04-16T01:01:09.416Z,11.53
2019-04-16T01:03:35.727Z,11.60
2019-04-16T01:06:06.749Z,10.63
2019-04-16T01:08:30.324Z,11.43
2019-04-16T01:10:56.808Z,10.53
2019-04-16T01:13:24.513Z,10.77
2019-04-16T01:15:51.599Z,12.00
2019-04-16T01:18:18.156Z,11.80
2019-04-16T01:20:44.632Z,12.27
2019-04-16T01:23:11.175Z,10.47
2019-04-16T01:25:37.467Z,11.83
2019-04-16T01:28:05.797Z,11.67
2019-04-16T01:30:36.466Z,11.10
2019-04-16T01:33:14.654Z,10.77
2019-04-16T01:35:43.586Z,11.70
2019-04-16T01:38:20.795Z,11.10
2019-04-16T01:40:52.121Z,11.17
2019-04-16T01:43:18.597Z,11.67
2019-04-16T01:45:45.022Z,11.77
2019-04-16T01:48:11.448Z,11.10
2019-04-16T01:50:37.950Z,11.13
2019-04-16T01:53:04.539Z,11.00
2019-04-16T01:55:31.045Z,11.30
2019-04-16T01:57:59.680Z,11.23
2019-04-16T02:00:25.951Z,10.47
2019-04-16T02:02:52.410Z,11.13
2019-04-16T02:05:20.374Z,10.20
2019-04-16T02:07:47.317Z,10.57
2019-04-16T02:10:13.712Z,10.80
2019-04-16T02:12:43.433Z,10.97
2019-04-16T02:15:09.025Z,10.97
2019-04-16T02:17:35.508Z,10.57
2019-04-16T02:20:06.189Z,36.33
2019-04-16T02:22:31.957Z,32.60
2019-04-16T02:24:58.287Z,14.87
2019-04-16T02:27:26.292Z,10.70
2019-04-16T02:29:53.825Z,10.90
2019-04-16T02:32:20.355Z,10.70
2019-04-16T02:34:46.756Z,10.37
2019-04-16T02:37:13.261Z,10.87
2019-04-16T02:39:48.742Z,10.67
2019-04-16T02:42:07.826Z,9.93
2019-04-16T02:44:34.303Z,10.50
2019-04-16T02:47:05.406Z,10.50
2019-04-16T02:49:29.428Z,10.97
2019-04-16T02:52:00.773Z,10.23
2019-04-16T02:54:34.162Z,10.80
2019-04-16T02:57:25.764Z,10.97
2019-04-16T02:59:49.187Z,10.70
2019-04-16T03:02:34.283Z,10.87
2019-04-16T03:05:02.720Z,18.80
2019-04-16T03:07:29.240Z,20.10
2019-04-16T03:10:01.335Z,15.20
2019-04-16T03:12:24.478Z,11.07
2019-04-16T03:14:51.192Z,11.03
2019-04-16T03:17:25.547Z,11.43
2019-04-16T03:19:53.835Z,11.77
2019-04-16T03:22:20.480Z,11.13
2019-04-16T03:24:47.163Z,10.80
2019-04-16T03:27:13.587Z,11.50
2019-04-16T03:29:40.203Z,10.73
2019-04-16T03:32:06.616Z,11.50
2019-04-16T03:34:32.966Z,9.93
2019-04-16T03:37:02.032Z,10.90
2019-04-16T03:39:27.732Z,10.63
2019-04-16T03:41:56.295Z,10.63
2019-04-16T03:44:22.532Z,11.10
2019-04-16T03:46:49.182Z,12.10
2019-04-16T03:49:15.566Z,10.60
2019-04-16T03:51:42.071Z,10.50
2019-04-16T03:54:08.337Z,10.90
2019-04-16T03:56:34.851Z,10.57
2019-04-16T03:59:01.563Z,11.03
2019-04-16T04:01:27.907Z,11.10
2019-04-16T04:03:54.411Z,10.80
2019-04-16T04:06:22.723Z,11.87
2019-04-16T04:08:53.010Z,13.30
2019-04-16T04:11:17.713Z,12.10
2019-04-16T04:13:44.087Z,11.77
2019-04-16T04:16:11.307Z,12.07
2019-04-16T04:18:42.921Z,11.67
2019-04-16T04:21:06.322Z,10.93
2019-04-16T04:23:32.737Z,11.87
2019-04-16T04:25:59.128Z,11.37
2019-04-16T04:28:25.531Z,11.83
2019-04-16T04:30:51.916Z,11.83
2019-04-16T04:33:41.829Z,10.57
2019-04-16T04:36:08.025Z,11.40
2019-04-16T04:38:37.355Z,11.70
2019-04-16T04:41:04.939Z,12.10
2019-04-16T04:43:32.134Z,11.43
2019-04-16T04:45:59.392Z,11.90
2019-04-16T04:48:26.501Z,11.63
2019-04-16T04:50:52.971Z,11.47
2019-04-16T04:53:20.096Z,11.83
2019-04-16T04:55:46.777Z,12.03
2019-04-16T04:58:13.198Z,12.90
2019-04-16T05:00:40.536Z,11.73
2019-04-16T05:03:12.442Z,11.70
2019-04-16T05:05:42.531Z,12.53
2019-04-16T05:08:09.061Z,12.10
2019-04-16T05:10:39.880Z,11.27
2019-04-16T05:13:03.958Z,11.77
2019-04-16T05:15:30.383Z,11.67
2019-04-16T05:17:56.771Z,10.77
2019-04-16T05:20:23.073Z,11.57
2019-04-16T05:22:50.531Z,10.37
2019-04-16T05:25:17.715Z,11.40
2019-04-16T05:27:44.003Z,10.83
2019-04-16T05:30:10.796Z,11.17
2019-04-16T05:32:37.428Z,11.40
2019-04-16T05:35:09.172Z,10.70
2019-04-16T05:37:33.701Z,11.97
2019-04-16T05:40:00.132Z,10.93
2019-04-16T05:42:26.444Z,11.00
2019-04-16T05:44:52.972Z,10.60
2019-04-16T05:47:19.296Z,11.43
2019-04-16T05:49:45.696Z,10.53
2019-04-16T05:52:12.074Z,11.20
2019-04-16T05:54:55.276Z,10.50
2019-04-16T05:57:26.515Z,10.07
2019-04-16T05:59:52.258Z,10.67
2019-04-16T06:02:20.872Z,10.87
2019-04-16T06:04:47.352Z,10.43
2019-04-16T06:07:13.834Z,10.87
2019-04-16T06:09:41.519Z,10.93
2019-04-16T06:12:09.455Z,10.70
2019-04-16T06:14:40.677Z,10.97
2019-04-16T06:17:31.662Z,10.80
2019-04-16T06:20:01.717Z,10.50
2019-04-16T06:22:35.759Z,10.00
2019-04-16T06:25:09.501Z,10.37
2019-04-16T06:27:35.266Z,10.53
2019-04-16T06:30:19.947Z,11.03
2019-04-16T06:32:51.003Z,11.13
2019-04-16T06:35:43.044Z,10.93
2019-04-16T06:38:08.814Z,11.60
2019-04-16T06:40:48.987Z,9.87
2019-04-16T06:43:17.493Z,11.53
2019-04-16T06:46:02.598Z,10.90
2019-04-16T06:48:47.268Z,10.27
2019-04-16T06:51:15.571Z,9.87
2019-04-16T06:54:00.483Z,10.13
2019-04-16T06:56:40.337Z,9.77
2019-04-16T06:59:26.778Z,11.37
2019-04-16T07:01:57.877Z,10.97
2019-04-16T07:04:30.674Z,10.77
2019-04-16T07:07:16.863Z,11.20
2019-04-16T07:09:45.990Z,12.17
2019-04-16T07:12:14.583Z,10.80
2019-04-16T07:14:40.914Z,10.73
2019-04-16T07:17:07.517Z,11.63
2019-04-16T07:19:34.244Z,10.13
2019-04-16T07:22:00.633Z,10.47
2019-04-16T07:24:30.121Z,10.30
2019-04-16T07:26:56.521Z,10.43
2019-04-16T07:29:25.542Z,9.07
2019-04-16T07:32:10.425Z,10.77
2019-04-16T07:34:56.802Z,9.87
2019-04-16T07:37:33.198Z,10.13
2019-04-16T07:40:17.433Z,10.17
2019-04-16T07:42:52.121Z,10.13
2019-04-16T07:45:16.134Z,10.90
2019-04-16T07:48:00.831Z,9.67
2019-04-16T07:50:41.043Z,9.80
2019-04-16T07:53:13.211Z,10.37
2019-04-16T07:55:42.518Z,10.47
2019-04-16T07:58:09.092Z,10.33
2019-04-16T08:00:40.160Z,10.30
2019-04-16T08:03:04.439Z,10.17
2019-04-16T08:05:30.882Z,10.43
2019-04-16T08:07:57.207Z,10.37
2019-04-16T08:10:23.837Z,10.00
2019-04-16T08:12:52.272Z,10.33
2019-04-16T08:15:18.909Z,10.70
2019-04-16T08:17:45.298Z,10.00
2019-04-16T08:20:12.014Z,9.93
2019-04-16T08:22:40.043Z,10.20
2019-04-16T08:25:06.972Z,10.00
2019-04-16T08:27:33.450Z,11.97
2019-04-16T08:30:03.396Z,11.70
2019-04-16T08:32:28.434Z,12.40
2019-04-16T08:34:55.069Z,10.23
2019-04-16T08:37:21.601Z,11.13
2019-04-16T08:39:48.294Z,10.87
2019-04-16T08:42:14.798Z,10.70
2019-04-16T08:44:41.322Z,10.37
2019-04-16T08:47:11.526Z,10.87
2019-04-16T08:49:36.327Z,11.10
2019-04-16T08:52:02.973Z,11.93
2019-04-16T08:54:29.338Z,10.93
2019-04-16T08:56:55.866Z,10.90
2019-04-16T08:59:22.371Z,11.07
2019-04-16T09:01:51.456Z,12.13
2019-04-16T09:04:17.452Z,10.83
2019-04-16T09:06:46.314Z,10.77
2019-04-16T09:09:24.411Z,10.93
2019-04-16T09:11:50.362Z,11.13
2019-04-16T09:14:20.921Z,11.57
2019-04-16T09:16:56.468Z,10.50
2019-04-16T09:19:24.100Z,12.30
2019-04-16T09:21:50.671Z,12.23
2019-04-16T09:24:40.523Z,10.70
2019-04-16T09:27:22.314Z,11.53
2019-04-16T09:30:09.868Z,11.60
2019-04-16T09:32:37.127Z,11.63
2019-04-16T09:35:17.453Z,11.77
2019-04-16T09:37:52.048Z,11.93
2019-04-16T09:40:37.233Z,11.17
2019-04-16T09:43:15.988Z,11.27
2019-04-16T09:45:37.333Z,12.27
2019-04-16T09:48:03.839Z,11.80
2019-04-16T09:50:30.298Z,11.80
2019-04-16T09:52:56.738Z,11.50
2019-04-16T09:55:23.238Z,11.97
2019-04-16T09:57:49.577Z,11.87
2019-04-16T10:00:37.513Z,12.40
2019-04-16T10:03:20.788Z,11.30
2019-04-16T10:05:47.416Z,11.87
2019-04-16T10:08:13.964Z,12.57
2019-04-16T10:10:40.389Z,12.17
2019-04-16T10:13:06.983Z,12.37
2019-04-16T10:15:33.694Z,15.07
2019-04-16T10:18:01.585Z,13.03
2019-04-16T10:20:28.722Z,12.03
2019-04-16T10:22:55.209Z,12.87
2019-04-16T10:25:21.745Z,13.20
2019-04-16T10:27:50.392Z,12.87
2019-04-16T10:30:30.055Z,12.77
2019-04-16T10:32:56.127Z,12.93
2019-04-16T10:35:22.848Z,12.07
2019-04-16T10:37:49.257Z,13.03
2019-04-16T10:40:26.529Z,13.17
2019-04-16T10:42:55.068Z,13.03
2019-04-16T10:45:29.654Z,12.50
2019-04-16T10:48:12.999Z,12.50
2019-04-16T10:50:44.383Z,13.67
2019-04-16T10:53:21.648Z,13.43
2019-04-16T10:55:55.938Z,14.13
2019-04-16T10:58:30.357Z,13.27
2019-04-16T11:00:58.815Z,13.23
2019-04-16T11:03:28.793Z,13.53
2019-04-16T11:05:57.858Z,13.90
2019-04-16T11:08:24.358Z,14.13
2019-04-16T11:10:51.057Z,14.27
2019-04-16T11:13:25.190Z,13.97
2019-04-16T11:15:52.099Z,13.83
2019-04-16T11:18:18.709Z,13.80
2019-04-16T11:20:45.386Z,13.23
2019-04-16T11:23:12.054Z,14.23
2019-04-16T11:25:38.707Z,14.40
2019-04-16T11:28:05.383Z,14.53
2019-04-16T11:30:43.353Z,13.97
2019-04-16T11:33:09.871Z,14.40
2019-04-16T11:35:36.474Z,14.10
2019-04-16T11:38:03.197Z,14.87
2019-04-16T11:40:29.694Z,14.50
2019-04-16T11:42:56.265Z,14.80
2019-04-16T11:45:23.084Z,14.97
2019-04-16T11:47:49.659Z,14.23
2019-04-16T11:50:16.207Z,14.70
2019-04-16T11:52:42.758Z,15.63
2019-04-16T11:55:09.386Z,15.80
2019-04-16T11:57:36.110Z,15.03
2019-04-16T12:00:11.589Z,16.17
2019-04-16T12:02:40.049Z,14.37
2019-04-16T12:05:08.556Z,14.73
2019-04-16T12:07:42.742Z,16.17
2019-04-16T12:10:17.793Z,15.03
2019-04-16T12:12:52.292Z,14.63
2019-04-16T12:15:39.175Z,15.30
2019-04-16T12:18:07.453Z,14.47
2019-04-16T12:20:45.061Z,15.17
2019-04-16T12:23:25.611Z,14.93
2019-04-16T12:26:00.067Z,14.97
2019-04-16T12:28:45.219Z,15.83
2019-04-16T12:31:17.186Z,15.60
2019-04-16T12:33:48.687Z,15.00
2019-04-16T12:36:33.502Z,15.40
2019-04-16T12:39:18.373Z,16.10
2019-04-16T12:41:44.560Z,15.10
2019-04-16T12:44:24.107Z,15.43
2019-04-16T12:47:04.276Z,14.83
2019-04-16T12:49:48.943Z,14.50
2019-04-16T12:52:17.717Z,15.60
2019-04-16T12:54:49.213Z,15.87
2019-04-16T12:57:17.664Z,16.50
2019-04-16T12:59:55.674Z,16.40
2019-04-16T13:02:35.890Z,15.33
2019-04-16T13:05:05.801Z,15.60
2019-04-16T13:07:46.247Z,15.20
2019-04-16T13:10:29.424Z,14.73
2019-04-16T13:13:15.629Z,15.23
2019-04-16T13:15:46.636Z,14.17
2019-04-16T13:18:17.968Z,15.33
2019-04-16T13:21:05.400Z,15.70
2019-04-16T13:23:36.013Z,14.30
2019-04-16T13:26:11.811Z,14.63
2019-04-16T13:28:36.090Z,14.50
2019-04-16T13:31:02.694Z,13.87
2019-04-16T13:33:29.215Z,13.43
2019-04-16T13:35:55.735Z,15.47
2019-04-16T13:38:24.191Z,15.17
2019-04-16T13:40:53.053Z,14.30
2019-04-16T13:43:21.208Z,15.97
2019-04-16T13:45:47.966Z,14.83
2019-04-16T13:48:28.331Z,14.33
2019-04-16T13:50:59.911Z,16.30
2019-04-16T13:53:29.085Z,15.13
2019-04-16T13:56:17.804Z,14.87
2019-04-16T13:59:00.397Z,15.43
2019-04-16T14:01:28.935Z,14.10
2019-04-16T14:03:56.492Z,16.33
2019-04-16T14:06:23.672Z,16.40
2019-04-16T14:08:50.207Z,15.30
2019-04-16T14:11:19.660Z,15.00
2019-04-16T14:13:46.439Z,14.97
2019-04-16T14:16:13.847Z,15.03
2019-04-16T14:18:40.496Z,13.63
2019-04-16T14:21:07.122Z,15.17
2019-04-16T14:23:33.629Z,13.60
2019-04-16T14:26:00.726Z,14.17
2019-04-16T14:28:27.275Z,13.60
2019-04-16T14:30:53.665Z,13.87
2019-04-16T14:33:22.054Z,13.17
2019-04-16T14:35:48.545Z,8.83
2019-04-16T14:38:16.855Z,7.67
2019-04-16T14:40:43.484Z,21.60
2019-04-16T14:43:10.894Z,9.03
2019-04-16T14:45:56.849Z,8.03
2019-04-16T14:48:10.976Z,8.37
2019-04-16T14:50:37.736Z,7.70
2019-04-16T14:53:04.140Z,7.80
2019-04-16T14:55:32.614Z,7.57
2019-04-16T14:58:17.518Z,6.67
2019-04-16T15:00:54.994Z,6.97
2019-04-16T15:03:43.154Z,6.50
2019-04-16T15:06:10.064Z,7.10
2019-04-16T15:08:41.184Z,30.10
2019-04-16T15:11:12.515Z,14.90
2019-04-16T15:13:43.539Z,7.53
2019-04-16T15:16:21.050Z,6.53
2019-04-16T15:19:01.735Z,7.07
2019-04-16T15:21:30.191Z,6.90
2019-04-16T15:24:01.303Z,6.47
2019-04-16T15:26:34.883Z,6.47
2019-04-16T15:29:03.280Z,6.50
2019-04-16T15:31:49.614Z,6.63
2019-04-16T15:34:23.980Z,6.30
2019-04-16T15:36:55.262Z,6.23
2019-04-16T15:39:23.610Z,5.47
2019-04-16T15:41:51.980Z,6.87
2019-04-16T15:44:23.694Z,6.60
2019-04-16T15:46:56.493Z,6.00
2019-04-16T15:49:41.458Z,6.37
2019-04-16T15:52:11.985Z,6.13
2019-04-16T15:54:56.435Z,8.63
2019-04-16T15:57:39.681Z,8.10
2019-04-16T16:00:09.316Z,5.63
2019-04-16T16:02:55.680Z,6.40
2019-04-16T16:05:26.805Z,5.60
2019-04-16T16:08:11.126Z,5.37
2019-04-16T16:10:39.431Z,5.20
2019-04-16T16:13:05.953Z,5.23
2019-04-16T16:15:32.502Z,5.30
2019-04-16T16:18:00.969Z,4.70
2019-04-16T16:20:27.465Z,5.20
2019-04-16T16:22:54.562Z,5.60
2019-04-16T16:25:22.571Z,5.53
2019-04-16T16:27:48.993Z,4.77
2019-04-16T16:30:15.757Z,4.97
2019-04-16T16:32:42.540Z,5.50
2019-04-16T16:35:09.204Z,5.37
2019-04-16T16:37:36.876Z,4.90
2019-04-16T16:40:05.693Z,6.20
2019-04-16T16:42:32.219Z,5.00
2019-04-16T16:45:01.714Z,5.67
2019-04-16T16:47:32.144Z,5.37
2019-04-16T16:49:58.818Z,4.90
2019-04-16T16:52:35.983Z,5.27
2019-04-16T16:55:07.166Z,5.07
2019-04-16T16:57:38.414Z,5.60
2019-04-16T17:00:23.802Z,4.90
2019-04-16T17:02:52.167Z,5.33
2019-04-16T17:05:20.932Z,5.20
2019-04-16T17:07:50.712Z,5.83
2019-04-16T17:10:16.049Z,4.87
2019-04-16T17:12:42.635Z,5.93
2019-04-16T17:15:09.660Z,5.57
2019-04-16T17:17:36.302Z,6.10
2019-04-16T17:20:03.381Z,5.20
2019-04-16T17:22:29.999Z,5.93
2019-04-16T17:24:56.448Z,5.97
2019-04-16T17:27:23.052Z,5.77
2019-04-16T17:29:50.914Z,5.43
2019-04-16T17:32:17.753Z,5.60
2019-04-16T17:34:44.492Z,6.33
2019-04-16T17:37:11.077Z,6.53
2019-04-16T17:39:43.352Z,6.20
2019-04-16T17:42:12.024Z,5.90
2019-04-16T17:44:57.018Z,6.70
2019-04-16T17:47:42.030Z,10.43
2019-04-16T17:50:13.127Z,9.77
2019-04-16T17:52:56.382Z,8.20
2019-04-16T17:55:27.819Z,7.70
2019-04-16T17:57:56.208Z,7.63
2019-04-16T18:00:27.540Z,7.20
2019-04-16T18:03:03.048Z,7.83
2019-04-16T18:05:32.066Z,7.87
2019-04-16T18:08:09.523Z,8.13
2019-04-16T18:10:40.642Z,7.40
2019-04-16T18:13:11.705Z,7.53
2019-04-16T18:15:42.781Z,8.10
2019-04-16T18:18:16.932Z,8.50
2019-04-16T18:20:56.787Z,8.53
2019-04-16T18:23:28.708Z,8.90
2019-04-16T18:26:13.755Z,8.90
2019-04-16T18:28:42.121Z,7.20
2019-04-16T18:31:16.254Z,5.70
2019-04-16T18:33:47.362Z,6.10
2019-04-16T18:36:18.452Z,5.57
2019-04-16T18:38:47.062Z,6.10
2019-04-16T18:41:27.607Z,6.20
2019-04-16T18:44:06.675Z,5.43
2019-04-16T18:46:47.009Z,6.30
2019-04-16T18:49:17.420Z,5.30
2019-04-16T18:51:44.201Z,6.00
2019-04-16T18:54:10.758Z,10.17
2019-04-16T18:56:37.586Z,5.90
2019-04-16T18:59:04.420Z,5.90
2019-04-16T19:01:33.495Z,5.50
2019-04-16T19:04:00.214Z,5.40
2019-04-16T19:06:26.940Z,5.40
2019-04-16T19:08:53.981Z,5.60
2019-04-16T19:11:22.551Z,5.50
2019-04-16T19:13:49.522Z,5.00
2019-04-16T19:16:16.381Z,5.20
2019-04-16T19:18:43.405Z,5.40
2019-04-16T19:21:10.448Z,5.30
2019-04-16T19:23:37.419Z,5.50
2019-04-16T19:26:04.355Z,5.33
2019-04-16T19:28:31.125Z,5.13
2019-04-16T19:30:57.995Z,5.60
2019-04-16T19:33:24.829Z,5.40
2019-04-16T19:35:52.274Z,5.30
2019-04-16T19:38:19.404Z,5.60
2019-04-16T19:40:47.769Z,5.63
2019-04-16T19:43:17.204Z,5.67
2019-04-16T19:45:44.564Z,5.40
2019-04-16T19:48:12.848Z,5.57
2019-04-16T19:50:39.767Z,5.33
2019-04-16T19:53:06.644Z,5.70
2019-04-16T19:55:33.590Z,5.60
2019-04-16T19:58:00.453Z,6.07
2019-04-16T20:00:27.439Z,5.37
2019-04-16T20:02:54.529Z,6.07
2019-04-16T20:05:21.326Z,5.10
2019-04-16T20:07:48.155Z,20.70
2019-04-16T20:10:15.145Z,16.47
2019-04-16T20:12:42.155Z,8.20
2019-04-16T20:15:09.817Z,5.90
2019-04-16T20:17:36.708Z,4.93
2019-04-16T20:20:05.139Z,5.10
2019-04-16T20:22:32.049Z,5.00
2019-04-16T20:24:59.246Z,5.00
2019-04-16T20:27:26.185Z,5.23
2019-04-16T20:29:53.292Z,4.80
2019-04-16T20:32:20.366Z,5.00
2019-04-16T20:34:47.067Z,4.70
2019-04-16T20:37:13.816Z,5.07
2019-04-16T20:39:40.858Z,4.97
2019-04-16T20:42:07.725Z,4.87
2019-04-16T20:44:34.168Z,4.50
2019-04-16T20:47:03.318Z,4.57
2019-04-16T20:49:29.391Z,4.80
2019-04-16T20:52:00.186Z,5.10
2019-04-16T20:54:24.725Z,4.90
2019-04-16T20:56:53.261Z,5.17
2019-04-16T20:59:20.167Z,5.17
2019-04-16T21:01:46.913Z,5.20
2019-04-16T21:04:13.618Z,5.33
2019-04-16T21:06:41.881Z,4.77
2019-04-16T21:09:08.895Z,5.37
2019-04-16T21:11:40.458Z,5.27
2019-04-16T21:14:04.333Z,4.70
2019-04-16T21:16:33.835Z,4.97
2019-04-16T21:18:59.729Z,5.30
2019-04-16T21:21:26.413Z,4.90
2019-04-16T21:23:52.990Z,5.33
2019-04-16T21:26:20.125Z,5.30
2019-04-16T21:28:51.539Z,5.13
2019-04-16T21:31:25.886Z,5.47
2019-04-16T21:33:54.655Z,5.17
2019-04-16T21:36:29.504Z,5.10
2019-04-16T21:38:58.146Z,5.30
2019-04-16T21:41:25.575Z,5.63
2019-04-16T21:43:53.167Z,5.37
2019-04-16T21:46:20.404Z,6.37
2019-04-16T21:48:47.635Z,5.63
2019-04-16T21:51:19.020Z,5.93
2019-04-16T21:53:42.885Z,6.27
2019-04-16T21:56:09.886Z,5.63
2019-04-16T21:58:36.645Z,5.60
2019-04-16T22:01:08.156Z,5.77
2019-04-16T22:03:41.902Z,5.50
2019-04-16T22:06:04.966Z,6.07
2019-04-16T22:08:31.615Z,5.83
2019-04-16T22:10:58.261Z,5.50
2019-04-16T22:13:24.851Z,5.77
2019-04-16T22:15:53.742Z,6.17
2019-04-16T22:18:19.879Z,5.80
2019-04-16T22:20:46.320Z,6.00
2019-04-16T22:23:13.424Z,6.27
2019-04-16T22:25:41.053Z,6.50
2019-04-16T22:28:11.403Z,5.53
2019-04-16T22:30:36.220Z,6.20
2019-04-16T22:33:06.407Z,5.90
2019-04-16T22:35:31.947Z,7.13
2019-04-16T22:37:58.546Z,7.50
2019-04-16T22:40:26.886Z,7.43
2019-04-16T22:43:05.942Z,7.60
2019-04-16T22:45:37.554Z,8.27
2019-04-16T22:48:04.170Z,7.17
2019-04-16T22:50:30.714Z,7.37
2019-04-16T22:52:57.428Z,7.57
2019-04-16T22:55:25.130Z,6.67
2019-04-16T22:57:52.381Z,7.37
2019-04-16T23:00:32.521Z,7.37
2019-04-16T23:02:59.196Z,6.60
2019-04-16T23:05:27.744Z,7.27
2019-04-16T23:07:54.129Z,7.17
2019-04-16T23:10:20.983Z,6.80
2019-04-16T23:12:48.386Z,7.40
2019-04-16T23:15:15.091Z,7.27
2019-04-16T23:17:42.850Z,6.90
2019-04-16T23:20:10.394Z,6.93
2019-04-16T23:22:37.086Z,7.17
2019-04-16T23:25:04.570Z,7.10
2019-04-16T23:27:31.119Z,7.13
2019-04-16T23:29:57.530Z,7.00
2019-04-16T23:32:27.632Z,6.57
2019-04-16T23:34:52.245Z,6.17
2019-04-16T23:37:22.981Z,6.43
2019-04-16T23:39:46.970Z,6.57
2019-04-16T23:42:13.410Z,6.50
2019-04-16T23:45:00.390Z,6.10
2019-04-16T23:47:31.726Z,6.93
2019-04-16T23:50:02.807Z,7.00
2019-04-16T23:52:31.872Z,6.27
2019-04-16T23:55:01.457Z,6.00
2019-04-16T23:57:39.028Z,6.60
